Archival Weather

Chicago O'Hare International

Chicago, Illinois (KORD)

Report from: Wednesday, July 19, 2023 3:51 PM CDT
Current time: Monday, July 22, 2024 5:20 AM CDT

Current weather – Weather history – Daily summaries
Weather forecast

Temperature28.9°C (84.0°F)
Heat index28.7°C (83.7°F)
Dew point13.9°C (57.0°F)
Winds 5 kts (2.6 m/s, 5.8 mph) West (260°)
Visibility10 mi. (16.1 km)
Clouds Few clouds 12,000 ft. (3,658 m)
Ceiling: Broken clouds 25,000 ft. (7,620 m)
Altimeter30.01 in.Hg (1016 mB)
Relative humidity40 %
Density altitude1,736 ft. (529 m)
Sea-level pressure101.6 kPa (1016 mB, 29.99 in.Hg)
Remarks Automated weather observing station with precipitation discriminator
Pressure falling more quickly
Flight conditions Visual Meteorological Conditions
Raw dataKORD 192051Z 26005KT 10SM FEW120 BKN250 29/14 A3001 RMK AO2 SLP157 T02890139 58012
An error has occurred. This application may no longer respond until reloaded. Reload 🗙